Terminal Aerodrome Forecast
Issued by NWS Memphis, TN

Home | Current Version | Previous Version | Text Only | Print | Product List | Glossary On
Versions: 1 2 3 4 5 6 7 8 9 10 11 12 13 14 15 16 17
000
FTUS44 KMEG 221408 AAA
TAFJBR
TAF AMD
KJBR 221408Z 2214/2312 30010KT 5SM -SHRA BR SCT030 BKN050
     FM221700 29009KT P6SM VCSH OVC020
     FM222300 33007KT P6SM BKN030 BKN120
     FM230500 31005KT P6SM SKC=

USA.gov is the U.S. government's official web portal to all federal, state and local government web resources and services.